Terminal Aerodrome Forecast
Issued by NWS

Home | Current Version | Previous Version | Text Only | Print | Product List | Glossary On
Versions: 1 2 3 4 5 6 7 8 9 10 11 12 13 14 15
000
FTUS41 KBTV 271100
TAFMPV
TAF
KMPV 271124Z 2712/2812 27005KT P6SM VCSH SCT040 BKN060
     FM272100 31004KT P6SM SCT040
     FM280000 VRB02KT P6SM FEW040 SCT100
     FM280600 VRB02KT P6SM BKN030=

USA.gov is the U.S. government's official web portal to all federal, state and local government web resources and services.